Time;durP1;ratioP1;P1;durP2;ratioP2;P2;SDS_P1;SDS_P2;PMS_P1;PMS_P2;Temp;Humidity;BMP_temperature;BMP_pressure;BME280_temperature;BME280_humidity;BME280_pressure;Samples;Min_cycle;Max_cycle;Signal;HPM_P1;HPM_P2
2023/05/23 00:05:14;;;;;;;43.60;30.80;;;;;;;19.14;79.03;99018.00;7490429;39;20249;31
2023/05/23 00:10:44;;;;;;;48.10;31.10;;;;;;;19.13;78.54;99021.81;7461927;39;20238;31
2023/05/23 00:16:02;;;;;;;44.70;31.50;;;;;;;19.03;78.84;99022.34;7437022;39;20272;31
2023/05/23 00:21:35;;;;;;;43.30;31.53;;;;;;;19.00;79.61;99022.75;7422503;39;20389;31
2023/05/23 00:26:52;;;;;;;42.75;32.10;;;;;;;19.02;79.29;99025.28;7428915;39;21368;31
2023/05/23 00:32:24;;;;;;;44.80;31.50;;;;;;;19.01;78.61;99024.44;7394445;39;20289;31
2023/05/23 00:38:01;;;;;;;43.77;31.37;;;;;;;19.12;78.42;99022.88;7428720;39;20273;31
2023/05/23 00:43:30;;;;;;;42.47;30.27;;;;;;;19.09;77.25;99026.88;7434601;39;21326;31
2023/05/23 00:49:01;;;;;;;39.30;28.65;;;;;;;19.02;77.78;99026.13;7397502;39;20239;31
2023/05/23 00:54:36;;;;;;;37.57;28.73;;;;;;;18.91;79.17;99026.88;7400458;39;21268;31
2023/05/23 01:00:12;;;;;;;35.30;27.30;;;;;;;18.84;79.16;99028.81;7421882;39;21291;31
2023/05/23 01:10:52;;;;;;;36.03;27.60;;;;;;;18.89;78.28;99048.09;7510424;38;21110;31
2023/05/23 01:16:27;;;;;;;38.27;27.37;;;;;;;18.95;78.00;99035.44;7488928;38;20268;31
2023/05/23 01:27:15;;;;;;;36.33;26.13;;;;;;;18.96;78.05;99039.81;7488684;38;21097;31
2023/05/23 01:32:52;;;;;;;35.17;27.07;;;;;;;18.85;78.31;99053.19;7468804;39;20252;31
2023/05/23 01:38:13;;;;;;;33.27;26.13;;;;;;;18.73;78.82;99054.97;7470203;39;20268;31
2023/05/23 01:43:44;;;;;;;35.40;26.55;;;;;;;18.64;79.00;99048.09;7399870;39;20270;31
2023/05/23 01:49:18;;;;;;;34.20;25.80;;;;;;;18.74;78.35;99055.78;7444344;39;20294;31
2023/05/23 01:54:52;;;;;;;33.00;27.00;;;;;;;18.64;78.62;99047.25;7420115;39;21419;31
2023/05/23 02:06:30;;;;;;;37.37;28.53;;;;;;;18.56;79.12;99058.47;7424998;39;21080;31
2023/05/23 02:16:55;;;;;;;36.43;30.13;;;;;;;18.37;80.44;99062.97;7515957;38;20268;31
2023/05/23 02:27:32;;;;;;;32.75;27.75;;;;;;;18.47;79.20;99066.06;7460555;39;20285;31
2023/05/23 02:38:09;;;;;;;34.55;26.80;;;;;;;18.46;79.21;99067.09;7482059;39;20258;31
2023/05/23 02:43:43;;;;;;;32.73;28.30;;;;;;;18.57;78.78;99066.41;7418855;39;21297;31
2023/05/23 02:54:20;;;;;;;34.93;28.50;;;;;;;18.44;79.02;99070.03;7378615;39;20294;31
2023/05/23 03:05:01;;;;;;;30.95;26.90;;;;;;;18.40;78.44;99067.97;7437991;38;20276;31
2023/05/23 03:15:26;;;;;;;30.70;25.60;;;;;;;18.42;78.45;99072.19;7517201;38;20260;31
2023/05/23 03:21:03;;;;;;;30.03;26.67;;;;;;;18.32;78.83;99081.88;7441087;39;20410;31
2023/05/23 03:26:36;;;;;;;31.50;26.73;;;;;;;18.30;79.01;99087.56;7440757;39;21191;31
2023/05/23 03:31:53;;;;;;;29.60;25.80;;;;;;;18.26;78.59;99083.59;7442333;39;20242;31
2023/05/23 03:37:29;;;;;;;29.53;25.33;;;;;;;18.12;79.48;99079.28;7209982;39;21120;31
2023/05/23 03:43:16;;;;;;;30.60;25.50;;;;;;;18.05;80.05;99080.34;7503472;38;20338;31
2023/05/23 03:48:51;;;;;;;33.00;26.00;;;;;;;18.14;79.21;99098.12;7511762;38;20337;31
2023/05/23 03:54:24;;;;;;;32.10;25.65;;;;;;;18.12;78.97;99106.56;7420710;39;21299;31
2023/05/23 03:59:41;;;;;;;31.00;26.27;;;;;;;18.35;78.11;99120.47;7382832;39;20291;31
2023/05/23 04:10:23;;;;;;;30.73;25.90;;;;;;;18.32;78.32;99129.12;7385493;39;21911;31
2023/05/23 04:15:41;;;;;;;28.33;25.03;;;;;;;18.16;78.68;99137.81;7429777;39;21229;31
2023/05/23 04:21:01;;;;;;;30.10;24.80;;;;;;;17.99;79.15;99128.41;7414163;39;20285;31
2023/05/23 04:26:35;;;;;;;30.50;24.40;;;;;;;17.88;79.75;99132.66;7400031;39;20316;31
2023/05/23 04:31:51;;;;;;;27.95;24.50;;;;;;;17.95;79.11;99135.34;7400430;39;20258;31
2023/05/23 04:37:11;;;;;;;34.20;24.53;;;;;;;17.93;78.88;99132.03;7398285;39;20340;31
2023/05/23 04:42:48;;;;;;;28.60;24.45;;;;;;;17.94;79.08;99136.44;7479908;38;20331;31
2023/05/23 04:48:26;;;;;;;24.30;21.03;;;;;;;18.12;77.81;99133.84;7492682;38;20237;31
2023/05/23 04:53:43;;;;;;;25.90;21.97;;;;;;;18.18;77.45;99132.97;7440473;39;21292;31
2023/05/23 04:59:16;;;;;;;24.07;21.67;;;;;;;18.11;76.84;99144.97;7441561;39;21258;31
2023/05/23 05:04:50;;;;;;;24.67;20.20;;;;;;;17.96;76.90;99145.22;7399907;39;21283;31
2023/05/23 05:10:25;;;;;;;22.70;18.87;;;;;;;17.94;76.63;99142.72;7483702;38;20245;31
2023/05/23 05:15:59;;;;;;;22.45;18.85;;;;;;;18.02;76.26;99153.41;7473035;39;20257;31
2023/05/23 05:21:19;;;;;;;20.40;18.30;;;;;;;18.21;76.04;99165.25;7496232;39;20367;31
2023/05/23 05:26:52;;;;;;;21.60;17.50;;;;;;;18.07;75.86;99166.38;7441062;39;21419;31
2023/05/23 05:32:30;;;;;;;22.83;18.97;;;;;;;18.13;75.99;99164.66;7462623;39;20427;31
2023/05/23 05:38:03;;;;;;;21.15;18.85;;;;;;;18.11;76.35;99170.34;7465489;39;20326;31
2023/05/23 05:43:18;;;;;;;21.03;17.83;;;;;;;18.22;76.68;99187.94;7419955;39;21400;31
2023/05/23 05:48:51;;;;;;;18.85;16.85;;;;;;;18.07;76.46;99192.81;7389555;39;20297;31
2023/05/23 05:59:30;;;;;;;15.45;12.95;;;;;;;17.77;75.18;99223.28;7434919;39;20253;31
2023/05/23 06:05:08;;;;;;;17.90;12.77;;;;;;;17.64;75.68;99219.78;7445344;39;20260;31
2023/05/23 06:10:42;;;;;;;16.23;12.77;;;;;;;17.59;75.06;99228.59;7511191;38;20257;31
2023/05/23 06:16:15;;;;;;;15.10;12.80;;;;;;;17.64;74.65;99238.84;7419195;39;21334;31
2023/05/23 06:26:52;;;;;;;14.73;11.97;;;;;;;17.67;74.62;99250.16;7415989;39;20262;31
2023/05/23 06:37:28;;;;;;;13.70;10.13;;;;;;;17.65;73.48;99245.97;7426893;38;20909;31
2023/05/23 06:43:01;;;;;;;16.10;10.13;;;;;;;17.56;73.38;99248.03;7461390;39;20327;31
2023/05/23 06:48:34;;;;;;;17.70;10.67;;;;;;;17.76;73.24;99272.59;7398632;39;21378;31
2023/05/23 06:53:51;;;;;;;12.20;10.67;;;;;;;18.04;72.78;99267.72;7377891;39;21247;31
2023/05/23 06:59:22;;;;;;;10.90;8.93;;;;;;;17.94;72.26;99281.81;7414029;39;20285;31
2023/05/23 07:04:41;;;;;;;12.50;8.90;;;;;;;18.16;72.25;99284.31;7441928;39;21472;31
2023/05/23 07:09:58;;;;;;;10.35;9.25;;;;;;;18.27;71.83;99295.38;7432416;39;20284;31
2023/05/23 07:15:30;;;;;;;12.77;8.43;;;;;;;18.35;70.32;99311.53;7400515;39;21358;31
2023/05/23 07:21:05;;;;;;;10.37;8.33;;;;;;;18.30;70.04;99308.59;7357077;39;20376;31
2023/05/23 07:26:37;;;;;;;10.00;8.40;;;;;;;18.20;70.49;99312.84;7390220;39;20321;31
2023/05/23 07:32:11;;;;;;;9.90;8.30;;;;;;;18.12;70.40;99311.19;7404484;39;20484;31
2023/05/23 07:37:47;;;;;;;10.75;8.25;;;;;;;18.29;70.07;99314.28;7424045;39;21277;31
2023/05/23 07:48:26;;;;;;;10.80;8.63;;;;;;;18.19;68.81;99325.63;7462234;39;20275;31
2023/05/23 07:59:01;;;;;;;9.90;8.40;;;;;;;18.28;68.96;99329.81;7406703;39;20289;31
2023/05/23 08:04:33;;;;;;;8.70;7.47;;;;;;;18.25;67.58;99326.69;7334983;39;20375;31
2023/05/23 08:14:59;;;;;;;9.30;7.70;;;;;;;18.41;68.70;99335.25;7439410;39;20266;31
2023/05/23 08:20:32;;;;;;;9.20;7.15;;;;;;;18.42;66.74;99331.47;7418555;39;21277;31
2023/05/23 08:30:57;;;;;;;8.40;7.50;;;;;;;18.48;66.24;99343.41;7424911;39;20260;31
2023/05/23 08:36:30;;;;;;;7.23;6.50;;;;;;;18.32;64.80;99346.59;7421697;39;21287;31
2023/05/23 08:42:01;;;;;;;8.30;6.10;;;;;;;18.44;64.71;99358.53;7447648;39;20261;31
2023/05/23 08:47:36;;;;;;;7.80;6.45;;;;;;;18.45;64.39;99357.50;7461678;39;21442;31
2023/05/23 08:53:10;;;;;;;6.77;6.07;;;;;;;18.71;64.07;99357.44;7393262;39;21329;31
2023/05/23 08:58:43;;;;;;;7.27;5.93;;;;;;;18.75;64.17;99350.50;7421294;39;21243;31
2023/05/23 09:04:19;;;;;;;6.67;5.90;;;;;;;18.83;62.01;99363.06;7436930;39;20230;31
2023/05/23 09:09:56;;;;;;;6.50;5.63;;;;;;;18.74;62.30;99361.63;7459141;39;20257;31
2023/05/23 09:15:13;;;;;;;6.80;6.20;;;;;;;18.68;64.61;99367.97;7442116;39;20254;31
2023/05/23 09:26:06;;;;;;;10.50;7.35;;;;;;;18.69;63.86;99377.84;7446609;39;20257;31
2023/05/23 09:31:28;;;;;;;5.50;5.00;;;;;;;18.71;63.88;99375.72;7496502;38;20245;31
2023/05/23 09:36:49;;;;;;;6.35;5.20;;;;;;;18.72;62.57;99385.59;7467243;39;20284;31
2023/05/23 09:42:20;;;;;;;7.80;5.50;;;;;;;18.81;64.39;99390.63;7441641;39;20250;31
2023/05/23 09:47:38;;;;;;;5.95;5.30;;;;;;;18.86;62.96;99376.31;7442587;39;21389;31
2023/05/23 09:53:10;;;;;;;5.80;5.20;;;;;;;19.04;63.93;99372.88;7444488;39;20250;31
2023/05/23 09:58:46;;;;;;;6.10;4.80;;;;;;;19.49;63.58;99365.50;7419295;39;20273;31
2023/05/23 10:04:22;;;;;;;4.20;3.80;;;;;;;19.45;61.72;99367.84;7489381;38;20237;31
2023/05/23 10:09:54;;;;;;;4.50;4.10;;;;;;;19.44;61.07;99366.16;7462734;39;21402;31
2023/05/23 10:15:29;;;;;;;4.57;4.17;;;;;;;20.11;60.18;99365.47;7399684;39;21486;31
2023/05/23 10:21:04;;;;;;;5.40;4.10;;;;;;;20.71;60.78;99363.03;7421012;39;20326;31
2023/05/23 10:26:36;;;;;;;3.60;3.30;;;;;;;21.19;58.60;99356.78;7373981;39;21309;31
2023/05/23 10:32:13;;;;;;;3.43;3.13;;;;;;;20.52;57.03;99364.91;7168435;39;20231;31
2023/05/23 10:37:44;;;;;;;3.30;3.00;;;;;;;20.40;58.36;99360.41;7399516;39;20407;31
2023/05/23 10:43:14;;;;;;;3.50;3.10;;;;;;;20.07;59.37;99361.50;7396195;39;20250;31
2023/05/23 10:48:50;;;;;;;3.70;3.30;;;;;;;19.68;60.35;99364.56;7441440;39;20250;31
2023/05/23 10:54:25;;;;;;;2.97;2.77;;;;;;;19.74;60.60;99367.25;7439117;39;20248;31
2023/05/23 10:59:57;;;;;;;2.95;2.72;;;;;;;19.70;59.18;99368.72;7415949;39;21208;31
2023/05/23 11:05:37;;;;;;;3.10;2.80;;;;;;;19.77;60.65;99376.91;7481989;39;21333;31
2023/05/23 11:11:10;;;;;;;4.00;2.75;;;;;;;19.97;60.42;99387.69;7490119;39;20272;31
2023/05/23 11:16:45;;;;;;;3.00;2.57;;;;;;;19.87;60.87;99379.16;7416632;38;20369;31
2023/05/23 11:22:17;;;;;;;3.27;2.73;;;;;;;19.78;60.52;99384.91;7464024;39;21228;31
2023/05/23 11:27:50;;;;;;;3.30;3.00;;;;;;;19.49;60.99;99384.66;7440984;39;20324;31
2023/05/23 11:33:23;;;;;;;3.20;2.90;;;;;;;19.52;60.90;99386.97;7420552;39;21240;31
2023/05/23 11:38:56;;;;;;;3.47;3.17;;;;;;;19.47;61.53;99389.53;7400477;39;21180;31
2023/05/23 11:44:29;;;;;;;3.60;3.30;;;;;;;19.69;61.44;99386.22;7420018;39;21298;31
2023/05/23 11:50:01;;;;;;;3.53;3.23;;;;;;;20.05;60.95;99379.22;7454090;39;20228;31
2023/05/23 11:55:35;;;;;;;3.35;2.87;;;;;;;20.19;58.87;99381.59;7421037;39;21259;31
2023/05/23 12:01:13;;;;;;;4.25;3.30;;;;;;;20.37;59.62;99374.53;7436380;39;20245;31
2023/05/23 12:06:32;;;;;;;3.65;3.20;;;;;;;20.38;59.49;99371.56;7463498;39;20242;31
2023/05/23 12:12:03;;;;;;;4.40;2.97;;;;;;;20.07;59.67;99369.72;7444222;39;20374;31
2023/05/23 12:17:20;;;;;;;5.40;3.50;;;;;;;19.94;60.65;99363.50;7378468;39;21305;31
2023/05/23 12:22:52;;;;;;;4.30;3.90;;;;;;;19.90;60.42;99365.03;7439338;39;21315;31
2023/05/23 12:33:28;;;;;;;4.93;4.40;;;;;;;20.23;59.39;99355.47;7421042;39;20409;31
2023/05/23 12:44:04;;;;;;;6.55;3.60;;;;;;;21.04;55.85;99355.22;7389407;39;20678;31
2023/05/23 12:54:43;;;;;;;4.10;3.70;;;;;;;21.77;56.03;99343.25;7448152;38;20272;31
2023/05/23 13:05:09;;;;;;;4.68;3.65;;;;;;;21.78;55.17;99336.69;7515813;38;20257;31
2023/05/23 13:15:49;;;;;;;5.40;4.60;;;;;;;21.58;54.48;99346.09;7493832;38;21187;31
2023/05/23 13:26:29;;;;;;;4.40;4.00;;;;;;;21.26;54.53;99338.31;7495719;39;21267;31
2023/05/23 13:32:02;;;;;;;4.30;3.80;;;;;;;21.09;54.73;99338.94;7463916;39;20276;31
2023/05/23 13:37:35;;;;;;;4.90;4.40;;;;;;;21.43;54.81;99333.84;7422681;39;21175;31
2023/05/23 13:43:07;;;;;;;5.15;4.35;;;;;;;21.67;54.14;99327.38;7379633;39;20278;31
2023/05/23 13:48:41;;;;;;;4.55;4.15;;;;;;;21.70;53.28;99332.38;7358231;39;20283;31
2023/05/23 13:53:59;;;;;;;4.80;4.30;;;;;;;21.61;54.39;99332.94;7347240;39;20396;31
2023/05/23 13:59:19;;;;;;;4.60;3.50;;;;;;;21.57;53.99;99327.94;7360027;39;20364;31
2023/05/23 14:04:49;;;;;;;5.45;3.90;;;;;;;21.86;54.05;99319.88;7371139;39;21317;31
2023/05/23 14:10:20;;;;;;;5.35;4.20;;;;;;;21.64;53.39;99332.47;7403258;39;21270;31
2023/05/23 14:15:38;;;;;;;4.60;4.20;;;;;;;21.24;53.81;99337.72;7378487;39;21343;31
2023/05/23 14:21:11;;;;;;;4.70;4.30;;;;;;;21.40;54.22;99340.66;7376132;39;21323;31
2023/05/23 14:31:34;;;;;;;5.22;4.62;;;;;;;21.82;53.16;99333.25;7463284;39;20350;31
2023/05/23 14:37:06;;;;;;;7.50;4.80;;;;;;;21.51;53.10;99345.31;7432279;39;20486;31
2023/05/23 14:42:25;;;;;;;5.72;5.03;;;;;;;21.40;53.67;99348.88;7405213;39;21082;31
2023/05/23 14:47:42;;;;;;;6.32;4.65;;;;;;;21.17;54.63;99343.28;7467018;39;20329;31
2023/05/23 14:53:15;;;;;;;5.43;4.47;;;;;;;21.11;55.83;99344.16;7455976;39;20324;31
2023/05/23 14:58:49;;;;;;;5.77;4.77;;;;;;;21.23;54.38;99345.13;7448874;39;20238;31
2023/05/23 15:04:07;;;;;;;5.10;4.60;;;;;;;21.47;53.77;99349.62;7420075;39;21319;31
2023/05/23 15:09:39;;;;;;;5.40;4.80;;;;;;;21.16;53.96;99352.56;7421482;39;21220;31
2023/05/23 15:15:11;;;;;;;8.20;5.30;;;;;;;21.18;55.09;99346.88;7378699;39;20429;31
2023/05/23 15:20:43;;;;;;;6.70;6.00;;;;;;;20.94;55.44;99348.59;7377162;39;20308;31
2023/05/23 15:26:16;;;;;;;7.45;5.40;;;;;;;20.67;55.77;99348.91;7284362;39;21286;31
2023/05/23 15:31:33;;;;;;;7.37;5.25;;;;;;;20.69;56.10;99351.44;7357529;39;21198;31
2023/05/23 15:36:51;;;;;;;6.70;5.35;;;;;;;20.41;57.51;99351.94;7392382;39;21234;31
2023/05/23 15:47:26;;;;;;;6.10;5.50;;;;;;;20.51;55.77;99344.06;7378566;39;21398;31
2023/05/23 15:52:43;;;;;;;7.53;6.00;;;;;;;20.62;55.45;99351.50;7368124;39;20254;31
2023/05/23 15:58:03;;;;;;;6.10;5.50;;;;;;;20.67;56.22;99364.53;7427411;39;20242;31
2023/05/23 16:03:36;;;;;;;7.27;5.53;;;;;;;20.50;55.88;99357.97;7442983;39;20392;31
2023/05/23 16:09:09;;;;;;;7.20;6.00;;;;;;;20.48;56.13;99360.94;7406976;39;21206;31
2023/05/23 16:14:26;;;;;;;6.80;6.05;;;;;;;20.36;57.04;99359.19;7399362;39;20244;31
2023/05/23 16:20:00;;;;;;;12.20;6.40;;;;;;;20.40;55.52;99353.03;7436697;39;20242;31
2023/05/23 16:25:17;;;;;;;6.65;6.00;;;;;;;20.47;56.31;99363.91;7399756;39;21354;31
2023/05/23 16:30:34;;;;;;;6.90;6.20;;;;;;;19.98;57.56;99362.00;7430374;39;20270;31
2023/05/23 16:36:07;;;;;;;7.50;5.80;;;;;;;19.99;57.75;99360.94;7414157;39;20356;31
2023/05/23 16:41:40;;;;;;;7.93;6.37;;;;;;;19.69;58.92;99367.09;7400281;39;20228;31
2023/05/23 16:47:15;;;;;;;7.40;6.20;;;;;;;19.58;59.12;99365.03;7402496;39;20333;31
2023/05/23 16:52:49;;;;;;;10.47;6.60;;;;;;;19.69;58.08;99363.50;7419773;39;21184;31
2023/05/23 16:58:06;;;;;;;8.00;6.80;;;;;;;19.51;58.66;99366.16;7474060;38;20316;31
2023/05/23 17:03:23;;;;;;;6.50;5.40;;;;;;;19.26;58.89;99364.12;7428972;39;20235;31
2023/05/23 17:09:01;;;;;;;9.43;6.57;;;;;;;18.93;59.81;99360.72;7439760;39;21241;31
2023/05/23 17:14:22;;;;;;;6.70;6.10;;;;;;;19.03;58.84;99360.28;7378107;39;21286;31
2023/05/23 17:19:59;;;;;;;8.40;6.20;;;;;;;18.92;59.73;99364.50;7397801;39;21316;31
2023/05/23 17:30:37;;;;;;;11.00;7.00;;;;;;;18.83;59.52;99358.44;7227782;39;20312;31
2023/05/23 17:35:58;;;;;;;7.90;6.87;;;;;;;18.85;59.54;99356.34;7464488;39;20250;31
2023/05/23 17:41:33;;;;;;;9.70;6.60;;;;;;;18.92;59.81;99359.06;7483946;38;20249;31
2023/05/23 17:47:05;;;;;;;8.00;6.87;;;;;;;18.88;58.70;99372.31;7462101;39;21205;31
2023/05/23 17:52:38;;;;;;;10.07;7.50;;;;;;;18.75;59.20;99368.78;7421209;39;21331;31
2023/05/23 17:58:11;;;;;;;12.33;7.87;;;;;;;18.53;59.86;99370.09;7420318;39;21265;31
2023/05/23 18:03:47;;;;;;;8.60;7.70;;;;;;;18.57;60.20;99372.19;7399003;39;21360;31
2023/05/23 18:09:20;;;;;;;8.83;7.60;;;;;;;18.58;60.16;99376.59;7408734;39;21285;31
2023/05/23 18:14:53;;;;;;;8.43;7.27;;;;;;;18.57;59.84;99377.66;7397847;39;21258;31
2023/05/23 18:20:28;;;;;;;11.80;7.27;;;;;;;18.68;59.64;99385.19;7422918;39;21262;31
2023/05/23 18:26:01;;;;;;;8.34;7.52;;;;;;;18.66;60.64;99400.94;7373734;39;21166;31
2023/05/23 18:31:54;;;;;;;9.27;8.37;;;;;;;18.71;59.91;99403.88;7421146;39;21314;31
2023/05/23 18:42:40;;;;;;;;;;;;;;;;;;;;;
2023/05/23 18:48:07;;;;;;;11.60;8.70;;;;;;;18.28;58.73;99408.97;7315692;39;20260;31
2023/05/23 18:53:21;;;;;;;9.63;8.63;;;;;;;18.36;59.20;99424.28;7321339;39;20376;31
2023/05/23 18:58:52;;;;;;;9.37;8.20;;;;;;;18.33;59.22;99430.16;7338425;39;21331;31
2023/05/23 19:04:13;;;;;;;11.36;9.02;;;;;;;18.24;59.08;99437.72;7335982;39;20279;31
2023/05/23 19:09:29;;;;;;;9.95;8.45;;;;;;;18.14;59.50;99444.63;7353424;39;20313;31
2023/05/23 19:15:01;;;;;;;13.35;9.55;;;;;;;18.07;59.70;99463.75;7354745;39;20371;31
2023/05/23 19:20:35;;;;;;;12.40;9.30;;;;;;;17.93;60.21;99467.50;7348677;39;21443;31
2023/05/23 19:25:52;;;;;;;10.10;8.00;;;;;;;17.83;58.94;99478.78;7398393;39;21417;31
2023/05/23 19:31:26;;;;;;;11.00;7.17;;;;;;;17.57;58.33;99493.16;7385434;39;21224;31
2023/05/23 19:41:47;;;;;;;10.33;7.70;;;;;;;17.49;58.99;99504.25;7379721;39;20263;31
2023/05/23 19:47:21;;;;;;;9.60;6.87;;;;;;;17.41;57.89;99507.16;7377684;39;20243;31
2023/05/23 19:52:54;;;;;;;8.87;7.63;;;;;;;17.21;58.31;99506.19;7421761;39;21194;31
2023/05/23 19:58:27;;;;;;;9.90;6.90;;;;;;;17.19;58.46;99504.72;7424449;39;21241;31
2023/05/23 20:04:00;;;;;;;8.00;6.60;;;;;;;17.00;57.59;99518.03;7402190;39;21234;31
2023/05/23 20:09:18;;;;;;;10.40;7.33;;;;;;;16.98;58.62;99520.09;7359644;39;20320;31
2023/05/23 20:14:49;;;;;;;8.37;6.73;;;;;;;16.91;57.47;99516.50;7402061;39;20250;31
2023/05/23 20:20:23;;;;;;;9.15;6.75;;;;;;;16.81;57.90;99526.03;7404512;39;20244;31
2023/05/23 20:25:42;;;;;;;10.50;7.00;;;;;;;16.95;58.22;99536.84;7376986;39;20380;31
2023/05/23 20:30:59;;;;;;;9.80;6.90;;;;;;;16.86;57.91;99539.91;7401330;39;21198;31
2023/05/23 20:36:32;;;;;;;8.53;6.80;;;;;;;16.64;57.88;99539.13;7399014;39;21024;31
2023/05/23 20:41:49;;;;;;;9.90;6.80;;;;;;;16.50;58.62;99551.75;7420610;39;20313;31
2023/05/23 20:47:24;;;;;;;9.65;6.80;;;;;;;16.59;58.32;99547.03;7397502;39;20483;31
2023/05/23 20:52:56;;;;;;;8.80;6.50;;;;;;;16.61;57.99;99559.41;7346068;39;20244;31
2023/05/23 20:58:15;;;;;;;11.00;6.40;;;;;;;16.65;57.70;99560.72;7380640;39;21233;31
2023/05/23 21:03:46;;;;;;;8.97;6.37;;;;;;;16.59;58.54;99555.19;7314129;39;20385;31
2023/05/23 21:09:19;;;;;;;6.55;5.40;;;;;;;16.47;58.83;99567.63;7325148;39;20248;31
2023/05/23 21:14:41;;;;;;;9.23;5.80;;;;;;;16.46;58.33;99571.38;7349773;39;21238;31
2023/05/23 21:19:58;;;;;;;8.77;5.93;;;;;;;16.41;58.99;99571.94;7376541;39;20269;31
2023/05/23 21:25:31;;;;;;;8.30;5.00;;;;;;;16.27;58.87;99566.59;7403299;39;21220;31
2023/05/23 21:36:08;;;;;;;5.90;4.90;;;;;;;16.10;59.46;99564.09;7397496;39;20267;31
2023/05/23 21:41:41;;;;;;;9.60;5.00;;;;;;;16.02;58.71;99569.69;7385904;39;21286;31
2023/05/23 21:52:17;;;;;;;6.63;4.80;;;;;;;15.95;59.62;99581.53;7422410;39;20353;31
2023/05/23 21:57:53;;;;;;;6.05;4.90;;;;;;;15.85;59.46;99581.81;7439213;39;20240;31
2023/05/23 22:03:10;;;;;;;8.40;4.60;;;;;;;15.81;59.94;99582.37;7444690;39;20461;31
2023/05/23 22:08:46;;;;;;;7.15;4.35;;;;;;;15.74;60.11;99593.19;7443366;39;20239;31
2023/05/23 22:14:22;;;;;;;7.10;4.97;;;;;;;15.62;59.97;99590.09;7441419;39;20374;31
2023/05/23 22:19:55;;;;;;;7.15;4.65;;;;;;;15.55;60.50;99581.03;7423821;39;20274;31
2023/05/23 22:25:26;;;;;;;8.80;4.83;;;;;;;15.50;60.71;99579.88;7378517;39;21314;31
2023/05/23 22:36:03;;;;;;;7.60;5.00;;;;;;;15.59;59.89;99586.91;7440852;39;20288;31
2023/05/23 22:46:24;;;;;;;10.03;5.33;;;;;;;15.69;60.45;99596.47;7432734;39;20496;31
2023/05/23 22:57:05;;;;;;;6.57;5.10;;;;;;;15.76;61.05;99599.25;7489711;38;21505;31
2023/05/23 23:02:37;;;;;;;8.27;4.90;;;;;;;15.77;60.11;99603.69;7416942;39;21490;31
2023/05/23 23:08:09;;;;;;;8.15;4.90;;;;;;;15.71;60.88;99596.28;7420096;39;20262;31
2023/05/23 23:18:47;;;;;;;9.03;4.60;;;;;;;15.68;60.09;99604.81;7373353;39;20259;31
2023/05/23 23:29:11;;;;;;;7.37;4.33;;;;;;;15.84;60.59;99598.34;7425242;39;20281;31
2023/05/23 23:34:45;;;;;;;9.60;4.40;;;;;;;15.82;60.05;99595.81;7423403;39;21287;31
2023/05/23 23:45:07;;;;;;;7.90;4.10;;;;;;;15.64;61.29;99598.06;7440741;39;20363;31
2023/05/23 23:50:43;;;;;;;6.90;4.20;;;;;;;15.65;60.74;99591.63;7379960;39;20384;31
2023/05/23 23:56:00;;;;;;;6.33;4.03;;;;;;;15.73;60.75;99592.34;7328705;39;20381;31
